Time;durP1;ratioP1;P1;durP2;ratioP2;P2;SDS_P1;SDS_P2;PMS_P1;PMS_P2;Temp;Humidity;BMP_temperature;BMP_pressure;BME280_temperature;BME280_humidity;BME280_pressure;Samples;Min_cycle;Max_cycle;Signal;HPM_P1;HPM_P2
2022/03/28 00:00:52;;;;;;;5.13;3.65;;;10.40;59.30;;;;;;5002543;28;20623;-83
2022/03/28 00:03:17;;;;;;;4.82;3.28;;;10.40;59.40;;;;;;5004888;28;20416;-80
2022/03/28 00:05:43;;;;;;;7.18;4.25;;;10.30;59.40;;;;;;4982215;28;20664;-79
2022/03/28 00:08:08;;;;;;;8.40;4.25;;;10.30;59.50;;;;;;5006097;28;20034;-83
2022/03/28 00:10:34;;;;;;;5.47;3.85;;;10.30;59.60;;;;;;5005870;28;20025;-82
2022/03/28 00:13:00;;;;;;;5.72;3.88;;;10.20;59.60;;;;;;4980867;28;20050;-83
2022/03/28 00:15:25;;;;;;;4.78;3.58;;;10.20;59.80;;;;;;4960243;28;20054;-79
2022/03/28 00:17:51;;;;;;;7.57;3.75;;;10.10;59.80;;;;;;4986644;28;20116;-81
2022/03/28 00:20:16;;;;;;;7.20;3.85;;;10.10;60.00;;;;;;4976182;28;20559;-79
2022/03/28 00:22:42;;;;;;;5.70;4.07;;;10.10;60.00;;;;;;5003735;28;20387;-81
2022/03/28 00:25:08;;;;;;;4.13;3.72;;;10.10;60.10;;;;;;5002839;28;20593;-80
2022/03/28 00:27:34;;;;;;;8.95;3.80;;;10.00;60.30;;;;;;5002430;28;20112;-81
2022/03/28 00:30:00;;;;;;;6.65;4.15;;;10.00;60.30;;;;;;4988125;28;20113;-82
2022/03/28 00:32:25;;;;;;;5.32;3.95;;;10.00;60.30;;;;;;5002055;28;20045;-78
2022/03/28 00:34:51;;;;;;;6.05;4.00;;;9.90;60.40;;;;;;4988741;28;20023;-80
2022/03/28 00:37:16;;;;;;;6.90;4.13;;;9.90;60.50;;;;;;4978445;28;20113;-81
2022/03/28 00:39:42;;;;;;;7.50;4.70;;;9.80;60.50;;;;;;4986187;28;20026;-78
2022/03/28 00:42:07;;;;;;;8.63;4.30;;;9.80;60.60;;;;;;4994584;28;20046;-78
2022/03/28 00:44:33;;;;;;;5.85;3.85;;;9.80;60.80;;;;;;5002013;28;20038;-80
2022/03/28 00:46:59;;;;;;;7.88;4.18;;;9.80;60.80;;;;;;5005157;28;20030;-81
2022/03/28 00:49:24;;;;;;;5.60;3.80;;;9.70;60.80;;;;;;5003066;28;20708;-80
2022/03/28 00:51:50;;;;;;;5.78;3.72;;;9.70;60.90;;;;;;5001916;28;20057;-79
2022/03/28 00:54:16;;;;;;;5.35;3.83;;;9.60;61.00;;;;;;4979685;28;20041;-79
2022/03/28 00:56:42;;;;;;;4.65;3.85;;;9.60;61.10;;;;;;4993636;28;20475;-83
2022/03/28 00:59:08;;;;;;;6.63;3.90;;;9.60;61.20;;;;;;5000263;28;20041;-80
2022/03/28 01:01:33;;;;;;;5.05;3.72;;;9.50;61.20;;;;;;4967652;28;20041;-81
2022/03/28 01:03:59;;;;;;;5.97;4.45;;;9.50;61.30;;;;;;4984866;28;20041;-78
2022/03/28 01:06:25;;;;;;;7.30;4.32;;;9.50;61.40;;;;;;4996300;28;20041;-78
2022/03/28 01:08:51;;;;;;;6.53;3.90;;;9.40;61.50;;;;;;4955262;28;20022;-80
2022/03/28 01:11:17;;;;;;;5.95;3.85;;;9.40;61.60;;;;;;4986829;28;20034;-79
2022/03/28 01:13:43;;;;;;;5.25;3.97;;;9.40;61.60;;;;;;4995427;28;20046;-79
2022/03/28 01:16:09;;;;;;;5.70;3.80;;;9.30;61.70;;;;;;5001884;28;20034;-78
2022/03/28 01:18:35;;;;;;;6.15;4.22;;;9.30;61.80;;;;;;5005903;28;20117;-80
2022/03/28 01:21:02;;;;;;;6.88;4.10;;;9.30;61.90;;;;;;4964243;28;20125;-79
2022/03/28 01:23:27;;;;;;;7.32;4.65;;;9.20;61.90;;;;;;4976939;28;20037;-81
2022/03/28 01:25:53;;;;;;;8.98;3.90;;;9.20;62.10;;;;;;4985756;28;20455;-78
2022/03/28 01:28:22;;;;;;;6.65;4.25;;;9.20;62.10;;;;;;4980960;28;20035;-78
2022/03/28 01:30:48;;;;;;;6.88;4.40;;;9.10;62.30;;;;;;4986678;28;20060;-80
2022/03/28 01:33:14;;;;;;;6.75;3.80;;;9.10;62.30;;;;;;4982888;28;20062;-78
2022/03/28 01:35:41;;;;;;;5.95;4.30;;;9.10;62.40;;;;;;4968935;28;20061;-78
2022/03/28 01:38:08;;;;;;;7.53;4.20;;;9.00;62.50;;;;;;4942860;28;20043;-82
2022/03/28 01:40:35;;;;;;;7.15;4.30;;;9.00;62.50;;;;;;4985587;28;20074;-78
2022/03/28 01:43:00;;;;;;;6.45;4.07;;;8.90;62.40;;;;;;4982818;28;20046;-82
2022/03/28 01:45:26;;;;;;;9.02;4.43;;;8.90;62.50;;;;;;4979738;28;20084;-79
2022/03/28 01:47:52;;;;;;;4.93;3.70;;;8.90;63.30;;;;;;4979706;28;20030;-82
2022/03/28 01:50:17;;;;;;;7.47;4.32;;;8.90;62.60;;;;;;4981922;28;20485;-81
2022/03/28 01:52:43;;;;;;;7.65;4.25;;;8.80;62.60;;;;;;4981819;28;20502;-84
2022/03/28 01:55:09;;;;;;;6.05;4.35;;;8.80;62.70;;;;;;4970422;28;20729;-79
2022/03/28 01:57:38;;;;;;;7.35;4.80;;;8.80;62.90;;;;;;4981825;28;20129;-79
2022/03/28 02:00:06;;;;;;;6.32;4.85;;;8.70;63.00;;;;;;4976663;28;20581;-80
2022/03/28 02:02:32;;;;;;;5.72;4.60;;;8.70;63.10;;;;;;4966939;28;20030;-84
2022/03/28 02:04:57;;;;;;;8.00;4.32;;;8.70;63.20;;;;;;4970342;28;20045;-81
2022/03/28 02:07:23;;;;;;;8.00;5.13;;;8.60;63.30;;;;;;4951862;28;20027;-78
2022/03/28 02:09:48;;;;;;;7.47;4.55;;;8.60;63.30;;;;;;4971678;28;20764;-81
2022/03/28 02:12:14;;;;;;;6.38;4.32;;;8.60;63.40;;;;;;4989666;28;20025;-85
2022/03/28 02:14:39;;;;;;;7.03;4.93;;;8.50;63.60;;;;;;4966728;28;20027;-78
2022/03/28 02:17:05;;;;;;;6.65;4.97;;;8.50;63.60;;;;;;4969948;28;20473;-78
2022/03/28 02:19:31;;;;;;;7.68;4.60;;;8.50;63.60;;;;;;4991981;28;20033;-80
2022/03/28 02:21:56;;;;;;;8.10;4.57;;;8.50;63.70;;;;;;5004288;28;20026;-79
2022/03/28 02:24:22;;;;;;;7.70;5.70;;;8.40;63.70;;;;;;4987363;28;20116;-79
2022/03/28 02:26:47;;;;;;;6.22;4.50;;;8.40;63.90;;;;;;4972053;28;20594;-80
2022/03/28 02:29:13;;;;;;;7.95;4.90;;;8.40;63.90;;;;;;4988324;28;20482;-79
2022/03/28 02:31:38;;;;;;;7.30;4.53;;;8.30;63.80;;;;;;4998391;28;21354;-80
2022/03/28 02:34:04;;;;;;;7.47;4.68;;;8.30;64.00;;;;;;5013608;28;20049;-78
2022/03/28 02:36:30;;;;;;;6.55;4.43;;;8.30;64.10;;;;;;4995720;28;20060;-80
2022/03/28 02:38:55;;;;;;;7.88;4.35;;;8.20;64.00;;;;;;4988562;28;20038;-78
2022/03/28 02:41:21;;;;;;;6.78;4.82;;;8.20;64.10;;;;;;5023010;28;20037;-83
2022/03/28 02:43:46;;;;;;;7.70;4.55;;;8.20;64.20;;;;;;4969792;28;20038;-78
2022/03/28 02:46:12;;;;;;;6.20;4.40;;;8.20;64.40;;;;;;4999924;28;20045;-80
2022/03/28 02:48:37;;;;;;;7.07;4.30;;;8.10;64.40;;;;;;5018009;28;20065;-81
2022/03/28 02:51:03;;;;;;;5.97;4.60;;;8.10;64.40;;;;;;4999601;28;20053;-80
2022/03/28 02:53:28;;;;;;;7.55;5.07;;;8.10;64.40;;;;;;4991857;28;20588;-78
2022/03/28 02:55:54;;;;;;;7.57;4.65;;;8.00;64.50;;;;;;4996459;28;20030;-78
2022/03/28 02:58:19;;;;;;;8.60;5.00;;;8.00;64.60;;;;;;5009681;28;20041;-83
2022/03/28 03:00:45;;;;;;;8.07;4.80;;;8.00;64.70;;;;;;5013521;28;20560;-78
2022/03/28 03:03:10;;;;;;;8.00;4.60;;;8.00;64.70;;;;;;4994080;28;20696;-78
2022/03/28 03:05:36;;;;;;;6.60;4.68;;;7.90;64.70;;;;;;5010457;28;20052;-81
2022/03/28 03:08:02;;;;;;;8.07;5.13;;;7.90;64.70;;;;;;5015196;28;20540;-82
2022/03/28 03:10:27;;;;;;;7.30;5.03;;;7.90;64.80;;;;;;5012344;28;20037;-79
2022/03/28 03:12:53;;;;;;;6.53;4.78;;;7.80;65.70;;;;;;4992833;28;20105;-79
2022/03/28 03:15:18;;;;;;;9.10;5.05;;;7.80;65.00;;;;;;4971789;28;20053;-81
2022/03/28 03:17:44;;;;;;;7.05;4.95;;;7.80;65.00;;;;;;5015099;28;20101;-83
2022/03/28 03:20:10;;;;;;;7.40;5.20;;;7.70;65.10;;;;;;4997127;28;20539;-81
2022/03/28 03:22:36;;;;;;;8.52;5.10;;;7.70;65.20;;;;;;4959542;28;20085;-81
2022/03/28 03:25:02;;;;;;;6.40;4.40;;;7.60;65.20;;;;;;4982398;28;20042;-79
2022/03/28 03:27:28;;;;;;;8.93;5.28;;;7.60;65.30;;;;;;4986742;28;20042;-79
2022/03/28 03:29:53;;;;;;;11.07;5.03;;;7.60;65.40;;;;;;4979254;28;20045;-81
2022/03/28 03:32:19;;;;;;;9.02;5.28;;;7.60;65.50;;;;;;4971251;28;20047;-79
2022/03/28 03:34:44;;;;;;;7.38;5.18;;;7.60;65.60;;;;;;4967830;28;20053;-82
2022/03/28 03:37:10;;;;;;;7.72;4.50;;;7.60;65.60;;;;;;4977951;28;20034;-81
2022/03/28 03:39:36;;;;;;;6.78;4.97;;;7.50;65.70;;;;;;4984163;28;20022;-78
2022/03/28 03:42:01;;;;;;;8.60;5.10;;;7.50;65.80;;;;;;4985868;28;20038;-79
2022/03/28 03:44:27;;;;;;;7.28;4.57;;;7.50;65.80;;;;;;4985083;28;20043;-81
2022/03/28 03:46:53;;;;;;;9.40;5.25;;;7.50;65.90;;;;;;4988459;28;20117;-81
2022/03/28 03:49:18;;;;;;;10.52;5.07;;;7.40;65.90;;;;;;4974653;28;20134;-78
2022/03/28 03:51:44;;;;;;;8.93;4.97;;;7.40;65.90;;;;;;4957915;28;20041;-81
2022/03/28 03:54:09;;;;;;;7.95;5.30;;;7.40;66.00;;;;;;4972202;28;20078;-82
2022/03/28 03:56:35;;;;;;;7.68;4.80;;;7.30;66.00;;;;;;4989962;28;20046;-79
2022/03/28 03:59:00;;;;;;;7.20;4.82;;;7.30;66.00;;;;;;4970090;28;20544;-79
2022/03/28 04:01:26;;;;;;;8.70;5.03;;;7.30;66.20;;;;;;4985702;28;20031;-78
2022/03/28 04:03:52;;;;;;;7.80;4.82;;;7.20;66.10;;;;;;4955529;28;20049;-85
2022/03/28 04:06:18;;;;;;;6.28;4.55;;;7.20;66.20;;;;;;4972386;28;20042;-82
2022/03/28 04:08:43;;;;;;;7.85;4.95;;;7.20;66.30;;;;;;4946895;28;20072;-78
2022/03/28 04:11:09;;;;;;;6.60;4.65;;;7.20;66.40;;;;;;4983131;28;20049;-78
2022/03/28 04:13:34;;;;;;;7.93;5.22;;;7.10;66.30;;;;;;4983814;28;20049;-81
2022/03/28 04:16:00;;;;;;;9.07;5.30;;;7.10;66.40;;;;;;4971895;28;20030;-81
2022/03/28 04:18:27;;;;;;;7.22;5.18;;;7.10;66.50;;;;;;4964409;28;20041;-81
2022/03/28 04:20:52;;;;;;;9.80;5.53;;;7.10;66.50;;;;;;4993353;28;20041;-82
2022/03/28 04:23:19;;;;;;;7.47;4.95;;;7.10;66.70;;;;;;4999400;28;20030;-81
2022/03/28 04:25:44;;;;;;;7.05;5.10;;;7.00;66.60;;;;;;5000021;28;24783;-81
2022/03/28 04:28:10;;;;;;;9.10;5.10;;;7.00;66.70;;;;;;4993444;28;20550;-78
2022/03/28 04:30:36;;;;;;;8.13;5.45;;;7.00;66.80;;;;;;4971832;28;20031;-81
2022/03/28 04:33:02;;;;;;;9.55;5.47;;;7.00;66.90;;;;;;4985692;28;20058;-79
2022/03/28 04:35:28;;;;;;;7.40;4.82;;;6.90;66.80;;;;;;4991635;28;20038;-79
2022/03/28 04:37:54;;;;;;;9.60;5.32;;;6.90;66.90;;;;;;4997276;28;20030;-78
2022/03/28 04:40:19;;;;;;;7.40;5.28;;;6.90;67.00;;;;;;4983449;28;20495;-79
2022/03/28 04:42:45;;;;;;;9.63;5.70;;;6.90;67.00;;;;;;4985005;28;20034;-81
2022/03/28 04:45:10;;;;;;;7.45;5.20;;;6.80;67.00;;;;;;4967639;28;20030;-81
2022/03/28 04:47:36;;;;;;;8.80;5.55;;;6.80;67.10;;;;;;4985544;28;20118;-78
2022/03/28 04:50:03;;;;;;;9.18;5.43;;;6.80;67.20;;;;;;4997917;28;20559;-83
2022/03/28 04:52:28;;;;;;;9.95;6.28;;;6.80;67.20;;;;;;4991208;28;20053;-78
2022/03/28 04:54:54;;;;;;;7.72;5.35;;;6.70;67.20;;;;;;4999263;28;20485;-81
2022/03/28 04:57:19;;;;;;;8.27;4.85;;;6.70;67.40;;;;;;4999786;28;20034;-82
2022/03/28 04:59:45;;;;;;;7.97;5.13;;;6.70;67.40;;;;;;4976192;28;20044;-78
2022/03/28 05:02:10;;;;;;;7.97;4.75;;;6.70;67.50;;;;;;4959324;28;20077;-78
2022/03/28 05:04:36;;;;;;;9.40;5.25;;;6.60;67.50;;;;;;5003335;28;20091;-79
2022/03/28 05:07:02;;;;;;;9.05;4.72;;;6.60;67.50;;;;;;4992200;28;20109;-84
2022/03/28 05:09:27;;;;;;;7.53;5.30;;;6.60;67.50;;;;;;4999342;28;20110;-78
2022/03/28 05:11:53;;;;;;;8.30;5.13;;;6.60;67.60;;;;;;5001566;28;20432;-78
2022/03/28 05:14:19;;;;;;;13.82;5.53;;;6.60;67.70;;;;;;4991978;28;20038;-79
2022/03/28 05:16:44;;;;;;;7.90;4.80;;;6.50;67.70;;;;;;4984865;28;20030;-80
2022/03/28 05:19:10;;;;;;;13.32;5.13;;;6.50;67.80;;;;;;4989570;28;20066;-81
2022/03/28 05:21:36;;;;;;;8.05;5.30;;;6.50;67.90;;;;;;4985451;28;20037;-78
2022/03/28 05:24:01;;;;;;;10.00;5.50;;;6.50;67.90;;;;;;4975138;28;20058;-79
2022/03/28 05:26:27;;;;;;;7.15;5.13;;;6.50;68.00;;;;;;4987421;28;20116;-79
2022/03/28 05:28:53;;;;;;;10.90;5.13;;;6.40;68.00;;;;;;4992708;28;20105;-80
2022/03/28 05:31:18;;;;;;;8.30;4.90;;;6.40;68.10;;;;;;4965857;28;20035;-77
2022/03/28 05:33:44;;;;;;;9.05;5.25;;;6.40;68.10;;;;;;4984339;28;20104;-79
2022/03/28 05:36:09;;;;;;;9.10;5.68;;;6.40;68.20;;;;;;4990152;28;20076;-78
2022/03/28 05:38:35;;;;;;;7.97;5.07;;;6.40;68.20;;;;;;4980617;28;20043;-82
2022/03/28 05:41:00;;;;;;;10.55;5.63;;;6.40;68.20;;;;;;4985820;28;20030;-79
2022/03/28 05:43:26;;;;;;;7.57;5.60;;;6.40;68.30;;;;;;4964907;28;20034;-81
2022/03/28 05:45:54;;;;;;;8.57;5.43;;;6.40;68.30;;;;;;4989221;28;20038;-80
2022/03/28 05:48:20;;;;;;;7.88;5.43;;;6.30;68.20;;;;;;4963821;28;20045;-78
2022/03/28 05:50:46;;;;;;;9.07;6.10;;;6.40;68.30;;;;;;4989806;28;20428;-81
2022/03/28 05:53:13;;;;;;;11.85;6.00;;;6.40;68.40;;;;;;4968994;28;20045;-79
2022/03/28 05:55:40;;;;;;;9.77;6.25;;;6.40;68.40;;;;;;4998493;28;20022;-78
2022/03/28 05:58:07;;;;;;;13.00;6.63;;;6.40;68.50;;;;;;4991734;28;20036;-79
2022/03/28 06:00:32;;;;;;;11.20;6.68;;;6.30;68.40;;;;;;4997134;28;20031;-78
2022/03/28 06:02:58;;;;;;;10.50;6.85;;;6.40;68.50;;;;;;4996543;28;20034;-80
2022/03/28 06:05:24;;;;;;;8.43;5.75;;;6.40;68.50;;;;;;4979731;28;20030;-79
2022/03/28 06:07:49;;;;;;;8.40;5.95;;;6.40;68.50;;;;;;4987603;28;20027;-78
2022/03/28 06:10:16;;;;;;;11.73;6.95;;;6.40;68.60;;;;;;4978043;28;20053;-78
2022/03/28 06:12:42;;;;;;;11.48;7.05;;;6.40;68.60;;;;;;4991359;28;20046;-80
2022/03/28 06:15:08;;;;;;;12.38;8.15;;;6.40;68.70;;;;;;4983818;28;20038;-77
2022/03/28 06:17:34;;;;;;;13.88;8.35;;;6.50;68.80;;;;;;4995951;28;20113;-78
2022/03/28 06:20:04;;;;;;;15.30;10.07;;;6.50;69.70;;;;;;4995124;28;20132;-78
2022/03/28 06:22:30;;;;;;;14.67;8.97;;;6.50;69.00;;;;;;4984105;28;20026;-82
2022/03/28 06:24:56;;;;;;;14.55;9.32;;;6.50;68.80;;;;;;4973376;28;20260;-78
2022/03/28 06:27:24;;;;;;;16.83;10.55;;;6.60;68.90;;;;;;4987682;28;20483;-78
2022/03/28 06:29:52;;;;;;;17.77;11.52;;;6.60;68.90;;;;;;4992506;28;20062;-79
2022/03/28 06:32:18;;;;;;;18.65;11.32;;;6.60;69.10;;;;;;4976640;28;20033;-78
2022/03/28 06:34:43;;;;;;;20.60;12.20;;;6.70;69.00;;;;;;5004627;28;20041;-83
2022/03/28 06:37:09;;;;;;;19.50;10.38;;;6.70;69.10;;;;;;5006137;28;20868;-80
2022/03/28 06:39:35;;;;;;;16.65;9.73;;;6.80;69.20;;;;;;4977205;28;20071;-78
2022/03/28 06:42:01;;;;;;;16.77;8.98;;;6.90;69.40;;;;;;4997203;28;20069;-78
2022/03/28 06:44:26;;;;;;;14.52;8.40;;;6.90;69.50;;;;;;4995372;28;20520;-79
2022/03/28 06:46:52;;;;;;;21.40;8.55;;;7.00;69.60;;;;;;4991579;28;20056;-82
2022/03/28 06:49:17;;;;;;;13.50;7.47;;;7.10;69.70;;;;;;4961342;28;20502;-81
2022/03/28 06:51:43;;;;;;;15.38;8.20;;;7.20;69.80;;;;;;4976682;28;20026;-80
2022/03/28 06:54:10;;;;;;;14.88;7.13;;;7.30;70.00;;;;;;5011156;28;20037;-79
2022/03/28 06:56:36;;;;;;;13.88;7.97;;;7.30;70.00;;;;;;4994845;28;20030;-78
2022/03/28 06:59:01;;;;;;;19.70;8.68;;;7.50;70.10;;;;;;4998970;28;20080;-81
2022/03/28 07:01:27;;;;;;;17.65;8.60;;;7.60;70.10;;;;;;4992530;28;20492;-78
2022/03/28 07:03:54;;;;;;;17.38;9.10;;;7.70;70.90;;;;;;5003061;28;20392;-78
2022/03/28 07:06:20;;;;;;;17.00;9.02;;;7.80;70.10;;;;;;5001986;28;20132;-79
2022/03/28 07:08:46;;;;;;;17.30;8.07;;;7.80;70.00;;;;;;5013936;28;20068;-80
2022/03/28 07:11:12;;;;;;;18.35;8.85;;;7.80;70.20;;;;;;4987639;28;20225;-78
2022/03/28 07:13:37;;;;;;;14.00;8.35;;;7.90;70.40;;;;;;5008500;28;20657;-77
2022/03/28 07:16:03;;;;;;;14.63;7.72;;;8.00;70.40;;;;;;5008996;28;20191;-78
2022/03/28 07:18:29;;;;;;;19.80;8.05;;;8.10;70.50;;;;;;5008469;28;20750;-78
2022/03/28 07:20:54;;;;;;;22.52;11.30;;;8.10;70.60;;;;;;4982698;28;21421;-80
2022/03/28 07:23:20;;;;;;;19.95;11.25;;;8.30;70.70;;;;;;5001969;28;20796;-79
2022/03/28 07:25:46;;;;;;;19.75;9.45;;;8.40;70.70;;;;;;5005480;28;20591;-77
2022/03/28 07:28:12;;;;;;;17.60;10.40;;;8.50;70.70;;;;;;4999085;28;20755;-77
2022/03/28 07:30:38;;;;;;;19.70;10.25;;;8.70;70.70;;;;;;4990767;28;20045;-78
2022/03/28 07:33:06;;;;;;;25.23;12.05;;;8.80;70.70;;;;;;4999593;28;20519;-78
2022/03/28 07:35:37;;;;;;;21.23;11.98;;;9.00;70.60;;;;;;5000353;28;20030;-78
2022/03/28 07:38:06;;;;;;;;;;;9.10;70.50;;;;;;4993903;28;20030;-80
2022/03/28 07:40:31;;;;;;;20.92;11.05;;;9.30;70.30;;;;;;5014741;28;19936;-79
2022/03/28 07:42:57;;;;;;;29.40;12.73;;;9.40;69.90;;;;;;4993086;28;20443;-78
2022/03/28 07:45:23;;;;;;;22.77;10.85;;;9.60;70.00;;;;;;4988190;28;20510;-80
2022/03/28 07:47:49;;;;;;;23.65;12.45;;;9.80;70.00;;;;;;4972948;28;20034;-81
2022/03/28 07:50:14;;;;;;;26.65;14.63;;;9.90;69.80;;;;;;4998115;28;20044;-78
2022/03/28 07:52:40;;;;;;;24.30;13.10;;;10.00;69.60;;;;;;5005604;28;20030;-79
2022/03/28 07:55:06;;;;;;;19.45;11.88;;;10.20;69.60;;;;;;5010370;28;20036;-81
2022/03/28 07:57:32;;;;;;;27.65;13.98;;;10.30;69.50;;;;;;4990007;28;20022;-80
2022/03/28 07:59:58;;;;;;;24.05;12.20;;;10.50;69.40;;;;;;4996912;28;20022;-79
2022/03/28 08:02:24;;;;;;;34.80;13.45;;;10.70;69.30;;;;;;4977258;28;20033;-81
2022/03/28 08:04:49;;;;;;;21.83;12.15;;;10.80;69.10;;;;;;5011106;28;20088;-79
2022/03/28 08:07:15;;;;;;;23.90;13.32;;;11.00;69.10;;;;;;4965020;28;20052;-79
2022/03/28 08:09:41;;;;;;;27.25;12.95;;;11.20;68.80;;;;;;5002482;28;20033;-78
2022/03/28 08:12:07;;;;;;;20.63;11.50;;;11.40;68.70;;;;;;5001891;28;20038;-80
2022/03/28 08:14:33;;;;;;;15.73;10.95;;;11.60;68.50;;;;;;4973123;28;20442;-80
2022/03/28 08:16:58;;;;;;;15.30;10.25;;;11.80;68.20;;;;;;4997894;28;20038;-81
2022/03/28 08:19:24;;;;;;;17.50;9.73;;;12.00;68.00;;;;;;4984031;28;20038;-80
2022/03/28 08:21:50;;;;;;;17.73;10.02;;;12.20;67.80;;;;;;4971260;28;20047;-79
2022/03/28 08:24:15;;;;;;;17.35;10.00;;;12.50;67.50;;;;;;4966449;28;20048;-80
2022/03/28 08:26:41;;;;;;;18.70;10.13;;;12.70;67.20;;;;;;4978444;28;20560;-79
2022/03/28 08:29:06;;;;;;;15.18;9.23;;;12.90;66.90;;;;;;4956549;28;20647;-78
2022/03/28 08:31:32;;;;;;;16.75;8.73;;;13.10;66.70;;;;;;4969577;28;20038;-79
2022/03/28 08:33:58;;;;;;;17.95;9.52;;;13.30;66.40;;;;;;4982434;28;20078;-79
2022/03/28 08:36:23;;;;;;;13.57;9.20;;;13.50;66.10;;;;;;4984613;28;20044;-80
2022/03/28 08:38:49;;;;;;;16.55;8.68;;;13.60;65.60;;;;;;4963092;28;20030;-79
2022/03/28 08:41:16;;;;;;;13.15;8.32;;;13.80;65.50;;;;;;4983492;28;20048;-79
2022/03/28 08:43:42;;;;;;;14.70;9.02;;;14.00;65.20;;;;;;4964112;28;20034;-80
2022/03/28 08:46:09;;;;;;;13.57;8.10;;;14.30;65.10;;;;;;4960677;28;20094;-80
2022/03/28 08:48:35;;;;;;;13.23;8.35;;;14.50;64.80;;;;;;4960276;28;20045;-80
2022/03/28 08:51:01;;;;;;;10.63;7.10;;;14.80;64.40;;;;;;4983421;28;20054;-80
2022/03/28 08:53:26;;;;;;;10.35;7.75;;;15.00;64.10;;;;;;4963814;28;20554;-80
2022/03/28 08:55:52;;;;;;;11.80;7.53;;;15.20;63.60;;;;;;4971385;28;20096;-81
2022/03/28 08:58:18;;;;;;;11.23;6.72;;;15.40;63.20;;;;;;4968758;28;20122;-79
2022/03/28 09:00:43;;;;;;;11.50;7.30;;;15.60;62.80;;;;;;4971996;28;20507;-80
2022/03/28 09:03:09;;;;;;;12.90;7.22;;;15.80;62.40;;;;;;4971670;28;20110;-79
2022/03/28 09:05:38;;;;;;;10.07;6.63;;;16.00;62.10;;;;;;4964748;28;20065;-81
2022/03/28 09:08:05;;;;;;;11.55;7.20;;;16.20;61.70;;;;;;4985809;28;20121;-81
2022/03/28 09:10:34;;;;;;;8.88;6.40;;;16.50;61.30;;;;;;4944919;28;20043;-80
2022/03/28 09:13:04;;;;;;;9.93;7.35;;;16.70;60.90;;;;;;4983249;28;20049;-81
2022/03/28 09:15:49;;;;;;;10.85;7.57;;;16.90;60.50;;;;;;4981982;28;20635;-82
2022/03/28 09:18:27;;;;;;;8.80;6.97;;;17.10;60.10;;;;;;4976796;28;20027;-81
2022/03/28 09:20:58;;;;;;;11.95;7.43;;;17.30;59.70;;;;;;4985103;28;20065;-80
2022/03/28 09:23:31;;;;;;;11.20;7.70;;;17.50;59.20;;;;;;4987484;28;20104;-81
2022/03/28 09:25:57;;;;;;;10.77;6.70;;;17.60;59.00;;;;;;4985699;28;20116;-80
2022/03/28 09:28:46;;;;;;;10.93;6.57;;;17.80;58.80;;;;;;4960360;28;20492;-80
2022/03/28 09:31:21;;;;;;;7.95;5.90;;;18.00;58.30;;;;;;4978169;28;20129;-80
2022/03/28 09:33:56;;;;;;;10.20;7.32;;;18.20;58.10;;;;;;4976570;28;20051;-80
2022/03/28 09:36:48;;;;;;;9.45;7.07;;;18.40;57.80;;;;;;4982796;28;20038;-80
2022/03/28 09:39:20;;;;;;;8.73;5.82;;;18.70;57.20;;;;;;4986191;28;20033;-81
2022/03/28 09:42:06;;;;;;;10.75;7.40;;;18.90;57.10;;;;;;4982568;28;20034;-80
2022/03/28 09:44:43;;;;;;;10.25;7.38;;;19.20;56.50;;;;;;4983977;28;20444;-81
2022/03/28 09:47:11;;;;;;;10.60;7.00;;;19.30;56.00;;;;;;4980357;28;20504;-81
2022/03/28 09:49:37;;;;;;;10.40;6.65;;;19.50;55.90;;;;;;4996501;28;20030;-82
2022/03/28 09:52:08;;;;;;;13.82;6.75;;;19.70;55.70;;;;;;4973038;28;20526;-81
2022/03/28 09:54:44;;;;;;;6.85;5.88;;;19.90;55.20;;;;;;5004838;28;20096;-81
2022/03/28 09:57:10;;;;;;;11.95;7.68;;;20.20;54.70;;;;;;4988486;28;20049;-81
2022/03/28 09:59:40;;;;;;;8.32;6.15;;;20.40;54.50;;;;;;4994410;28;20089;-81
2022/03/28 10:02:22;;;;;;;9.40;6.32;;;20.70;54.10;;;;;;4984872;28;20049;-81
2022/03/28 10:04:49;;;;;;;9.63;6.13;;;20.90;53.40;;;;;;4973170;28;20104;-81
2022/03/28 10:07:15;;;;;;;9.60;7.43;;;21.10;53.40;;;;;;4979515;28;20035;-81
2022/03/28 10:09:41;;;;;;;8.23;6.13;;;21.40;53.20;;;;;;4992418;28;20029;-81
2022/03/28 10:12:07;;;;;;;11.65;6.55;;;21.60;52.80;;;;;;4965141;28;20034;-81
2022/03/28 10:14:33;;;;;;;10.07;6.65;;;21.80;52.50;;;;;;4989106;28;20045;-81
2022/03/28 10:17:01;;;;;;;7.13;5.50;;;22.00;52.10;;;;;;4978826;28;20030;-81
2022/03/28 10:19:26;;;;;;;8.02;5.75;;;22.30;51.70;;;;;;4985021;28;20108;-81
2022/03/28 10:21:52;;;;;;;9.50;6.32;;;22.50;51.40;;;;;;5012337;28;20132;-81
2022/03/28 10:24:22;;;;;;;7.32;5.72;;;22.70;51.00;;;;;;4978212;28;20271;-81
2022/03/28 10:26:52;;;;;;;10.45;5.97;;;22.90;50.80;;;;;;4988403;28;20034;-82
2022/03/28 10:29:21;;;;;;;9.55;5.75;;;23.10;50.40;;;;;;5005478;28;20033;-80
2022/03/28 10:31:55;;;;;;;7.95;6.28;;;23.40;50.10;;;;;;4982457;28;20034;-80
2022/03/28 10:34:39;;;;;;;8.93;5.40;;;23.70;49.30;;;;;;5025254;28;20121;-81
2022/03/28 10:37:34;;;;;;;7.72;6.25;;;23.80;48.70;;;;;;5010759;28;20048;-82
2022/03/28 10:40:18;;;;;;;7.28;6.07;;;24.10;48.20;;;;;;4994142;28;20031;-82
2022/03/28 10:42:51;;;;;;;6.70;5.43;;;24.30;48.00;;;;;;4985644;28;20038;-81
2022/03/28 10:45:19;;;;;;;7.93;5.60;;;24.50;47.90;;;;;;5004248;28;20030;-80
2022/03/28 10:47:46;;;;;;;11.80;6.63;;;24.70;47.80;;;;;;4972056;28;20034;-81
2022/03/28 10:50:12;;;;;;;7.55;5.43;;;24.90;47.20;;;;;;5012619;28;20042;-81
2022/03/28 10:52:38;;;;;;;9.20;6.47;;;25.00;46.90;;;;;;4999369;28;20033;-81
2022/03/28 10:55:08;;;;;;;5.95;5.32;;;25.30;46.60;;;;;;5000730;28;20038;-81
2022/03/28 10:57:34;;;;;;;5.85;4.97;;;25.40;46.10;;;;;;5009185;28;20029;-81
2022/03/28 11:00:09;;;;;;;6.35;4.85;;;25.60;45.90;;;;;;4989402;28;20847;-81
2022/03/28 11:02:35;;;;;;;8.77;6.00;;;25.80;45.40;;;;;;4982591;28;20099;-81
2022/03/28 11:05:13;;;;;;;6.68;4.93;;;25.90;45.00;;;;;;4964062;28;20443;-81
2022/03/28 11:07:38;;;;;;;9.15;5.32;;;26.00;43.80;;;;;;5009513;28;20040;-81
2022/03/28 11:10:05;;;;;;;8.27;4.95;;;26.10;44.20;;;;;;5013130;28;20727;-81
2022/03/28 11:12:40;;;;;;;6.55;5.60;;;26.20;43.70;;;;;;4991664;28;20721;-82
2022/03/28 11:15:21;;;;;;;8.02;5.68;;;26.40;43.10;;;;;;4990962;28;20121;-82
2022/03/28 11:18:04;;;;;;;8.07;5.68;;;26.50;41.80;;;;;;4974941;28;20056;-81
2022/03/28 11:20:50;;;;;;;7.00;5.63;;;26.60;41.60;;;;;;4996716;28;20046;-82
2022/03/28 11:23:15;;;;;;;8.75;5.68;;;26.70;41.30;;;;;;4986243;28;20060;-81
2022/03/28 11:25:53;;;;;;;8.55;5.45;;;26.80;42.00;;;;;;4985640;28;20033;-82
2022/03/28 11:28:22;;;;;;;8.85;5.00;;;27.00;41.60;;;;;;4991750;28;20045;-83
2022/03/28 11:30:52;;;;;;;6.05;4.68;;;27.10;41.50;;;;;;4958943;28;20041;-81
2022/03/28 11:33:22;;;;;;;8.47;5.50;;;27.30;41.10;;;;;;4966209;28;20517;-81
2022/03/28 11:35:52;;;;;;;6.97;5.40;;;27.40;40.60;;;;;;4979434;28;20345;-81
2022/03/28 11:38:25;;;;;;;8.07;5.18;;;27.50;40.10;;;;;;4975317;28;20065;-81
2022/03/28 11:40:52;;;;;;;7.18;4.90;;;27.60;39.60;;;;;;4968151;28;20042;-81
2022/03/28 11:43:25;;;;;;;8.77;5.97;;;27.70;39.40;;;;;;4978507;28;20992;-81
2022/03/28 11:45:51;;;;;;;11.18;5.72;;;27.80;38.90;;;;;;4963805;28;20047;-82
2022/03/28 11:48:18;;;;;;;8.25;5.57;;;27.80;38.60;;;;;;4969358;28;20037;-81
2022/03/28 11:50:43;;;;;;;8.02;5.22;;;27.90;38.20;;;;;;4978697;28;20042;-81
2022/03/28 11:53:16;;;;;;;11.13;6.63;;;28.00;38.10;;;;;;4980180;28;20045;-81
2022/03/28 11:55:48;;;;;;;9.55;5.32;;;28.10;36.90;;;;;;4976153;28;20030;-81
2022/03/28 11:58:19;;;;;;;10.32;6.22;;;28.00;36.70;;;;;;4967521;28;20038;-81
2022/03/28 12:00:45;;;;;;;10.15;5.45;;;28.10;36.80;;;;;;4969101;28;20025;-81
2022/03/28 12:03:12;;;;;;;8.90;6.03;;;28.00;36.30;;;;;;4969649;28;20026;-81
2022/03/28 12:05:40;;;;;;;10.40;6.38;;;28.10;36.20;;;;;;4983120;28;20097;-81
2022/03/28 12:08:16;;;;;;;10.48;5.70;;;28.20;35.80;;;;;;4985935;28;20058;-82
2022/03/28 12:10:42;;;;;;;11.80;6.53;;;28.30;35.10;;;;;;4966912;28;20027;-81
2022/03/28 12:13:09;;;;;;;8.85;5.13;;;28.40;35.30;;;;;;4986462;28;20070;-81
2022/03/28 12:15:44;;;;;;;9.35;5.65;;;28.40;35.00;;;;;;4984961;28;20185;-81
2022/03/28 12:18:10;;;;;;;10.00;5.35;;;28.40;34.60;;;;;;4985076;28;20031;-82
2022/03/28 12:20:37;;;;;;;9.63;6.75;;;28.50;34.80;;;;;;4980303;28;20111;-81
2022/03/28 12:23:05;;;;;;;9.63;5.95;;;28.60;34.60;;;;;;4968997;28;20038;-82
2022/03/28 12:25:35;;;;;;;8.52;5.45;;;28.70;34.40;;;;;;4968059;28;20027;-82
2022/03/28 12:28:02;;;;;;;9.05;5.38;;;28.70;33.90;;;;;;4991625;28;20045;-83
2022/03/28 12:30:33;;;;;;;7.25;5.43;;;28.80;33.90;;;;;;4994312;28;20030;-83
2022/03/28 12:33:06;;;;;;;10.15;5.07;;;28.90;33.50;;;;;;4991130;28;20116;-82
2022/03/28 12:35:32;;;;;;;8.32;4.78;;;29.10;33.40;;;;;;4974538;28;20068;-82
2022/03/28 12:38:00;;;;;;;7.72;5.47;;;29.20;33.50;;;;;;4967977;28;20049;-82
2022/03/28 12:40:28;;;;;;;10.98;6.38;;;29.30;33.20;;;;;;4975226;28;20038;-82
2022/03/28 12:42:54;;;;;;;8.63;5.60;;;29.40;32.30;;;;;;4964064;28;20030;-82
2022/03/28 12:45:24;;;;;;;8.43;5.30;;;29.50;32.30;;;;;;4965978;28;20034;-82
2022/03/28 12:47:57;;;;;;;7.53;4.93;;;29.40;31.90;;;;;;4977248;28;20108;-82